Time;durP1;ratioP1;P1;durP2;ratioP2;P2;SDS_P1;SDS_P2;PMS_P1;PMS_P2;Temp;Humidity;BMP_temperature;BMP_pressure;BME280_temperature;BME280_humidity;BME280_pressure;Samples;Min_cycle;Max_cycle;Signal;HPM_P1;HPM_P2
2024/01/16 00:01:14;;;;;;;10.60;2.38;;;4.40;99.90;;;;;;5036172;28;20055;-75
2024/01/16 00:03:39;;;;;;;15.95;3.00;;;4.70;99.90;;;;;;5054797;28;20033;-74
2024/01/16 00:06:06;;;;;;;8.80;2.00;;;4.40;99.90;;;;;;5040075;28;20415;-77
2024/01/16 00:08:32;;;;;;;7.65;1.88;;;4.50;99.90;;;;;;5052857;28;20132;-76
2024/01/16 00:10:58;;;;;;;8.88;1.65;;;3.40;99.90;;;;;;5069306;28;20123;-76
2024/01/16 00:13:23;;;;;;;6.68;1.60;;;3.40;99.90;;;;;;5070615;28;20073;-75
2024/01/16 00:15:49;;;;;;;5.68;1.55;;;4.30;99.90;;;;;;5041616;28;20056;-75
2024/01/16 00:18:15;;;;;;;6.28;1.77;;;3.20;99.90;;;;;;5052023;28;20048;-74
2024/01/16 00:20:41;;;;;;;7.97;1.50;;;3.40;99.90;;;;;;5067371;28;20371;-75
2024/01/16 00:23:06;;;;;;;5.75;1.70;;;3.40;99.90;;;;;;5054487;28;20052;-78
2024/01/16 00:25:32;;;;;;;8.40;1.67;;;4.70;99.90;;;;;;5048996;28;20660;-78
2024/01/16 00:27:58;;;;;;;5.05;1.42;;;4.10;99.90;;;;;;5035309;28;20040;-73
2024/01/16 00:30:23;;;;;;;7.60;1.65;;;3.40;99.90;;;;;;5063329;28;20032;-75
2024/01/16 00:32:49;;;;;;;8.50;1.58;;;4.10;99.90;;;;;;5066198;28;20681;-72
2024/01/16 00:35:15;;;;;;;5.63;1.58;;;3.80;99.90;;;;;;5048542;28;20041;-74
2024/01/16 00:37:41;;;;;;;4.90;1.17;;;4.30;99.90;;;;;;5032952;28;20508;-73
2024/01/16 00:40:08;;;;;;;8.95;1.48;;;4.00;99.90;;;;;;5048707;28;20052;-73
2024/01/16 00:42:34;;;;;;;9.45;1.52;;;4.20;99.90;;;;;;5055028;28;20045;-74
2024/01/16 00:45:00;;;;;;;5.38;1.52;;;3.70;99.90;;;;;;5050477;28;20047;-75
2024/01/16 00:47:26;;;;;;;7.20;1.58;;;3.80;99.90;;;;;;5037780;28;21661;-76
2024/01/16 00:49:52;;;;;;;7.63;1.60;;;5.10;99.90;;;;;;5066112;28;20086;-79
2024/01/16 00:52:19;;;;;;;5.50;1.33;;;3.80;99.90;;;;;;5069045;28;20041;-77
2024/01/16 00:54:44;;;;;;;6.80;1.88;;;3.50;99.90;;;;;;5052264;28;20124;-75
2024/01/16 00:57:10;;;;;;;4.43;1.45;;;3.60;99.90;;;;;;5065826;28;20115;-75
2024/01/16 00:59:37;;;;;;;2.60;0.90;;;4.20;64.60;;;;;;5053492;28;20046;-75
2024/01/16 01:02:03;;;;;;;5.30;1.27;;;3.90;59.30;;;;;;5047774;28;20037;-76
2024/01/16 01:04:29;;;;;;;5.22;1.00;;;4.20;14.60;;;;;;5049444;28;20052;-74
2024/01/16 01:06:55;;;;;;;7.93;1.33;;;3.50;52.10;;;;;;5061594;28;20067;-76
2024/01/16 01:09:21;;;;;;;6.45;1.20;;;4.40;49.40;;;;;;5037373;28;20036;-72
2024/01/16 01:11:46;;;;;;;4.25;1.40;;;3.50;48.20;;;;;;5045049;28;20045;-77
2024/01/16 01:14:12;;;;;;;3.00;1.10;;;3.60;91.00;;;;;;5033204;28;20648;-75
2024/01/16 01:16:38;;;;;;;3.70;1.30;;;4.50;99.90;;;;;;5026824;28;20098;-73
2024/01/16 01:19:04;;;;;;;4.25;1.00;;;4.40;99.90;;;;;;5045231;28;20132;-76
2024/01/16 01:21:29;;;;;;;4.18;1.10;;;4.40;99.90;;;;;;5056419;28;20080;-76
2024/01/16 01:23:55;;;;;;;2.33;0.65;;;4.30;99.90;;;;;;5058855;28;20075;-78
2024/01/16 01:26:21;;;;;;;6.15;0.95;;;4.00;99.90;;;;;;5031989;28;20041;-72
2024/01/16 01:28:46;;;;;;;4.97;1.30;;;3.60;99.90;;;;;;5048477;28;20033;-74
2024/01/16 01:31:12;;;;;;;5.45;1.27;;;3.30;99.90;;;;;;5065257;28;20137;-74
2024/01/16 01:33:42;;;;;;;6.65;1.00;;;3.60;99.90;;;;;;5048925;28;20123;-78
2024/01/16 01:36:08;;;;;;;7.57;1.20;;;4.20;99.90;;;;;;5036055;28;20113;-76
2024/01/16 01:38:33;;;;;;;4.05;1.60;;;4.30;99.90;;;;;;5061446;28;20053;-75
2024/01/16 01:40:59;;;;;;;7.13;1.85;;;4.60;99.90;;;;;;5048208;28;20044;-74
2024/01/16 01:43:25;;;;;;;7.57;1.60;;;4.20;99.90;;;;;;5062405;28;20045;-73
2024/01/16 01:46:16;;;;;;;9.35;1.65;;;4.10;99.90;;;;;;5047835;28;20041;-74
2024/01/16 01:48:42;;;;;;;9.70;1.88;;;3.20;99.90;;;;;;5060692;28;20611;-73
2024/01/16 01:51:13;;;;;;;8.82;1.65;;;3.20;99.90;;;;;;5032553;28;20041;-74
2024/01/16 01:53:41;;;;;;;7.47;1.67;;;3.30;99.90;;;;;;5055806;28;20128;-74
2024/01/16 01:56:15;;;;;;;9.75;1.83;;;4.20;99.90;;;;;;5068219;28;20044;-73
2024/01/16 01:58:43;;;;;;;5.88;1.60;;;4.30;99.90;;;;;;5075262;28;20481;-75
2024/01/16 02:01:10;;;;;;;9.27;1.85;;;3.30;99.90;;;;;;5040847;28;20385;-75
2024/01/16 02:03:44;;;;;;;7.07;1.40;;;3.40;99.90;;;;;;5064574;28;20052;-75
2024/01/16 02:06:15;;;;;;;3.53;1.35;;;3.30;99.90;;;;;;5060232;28;20041;-73
2024/01/16 02:08:41;;;;;;;8.18;1.45;;;3.30;99.90;;;;;;5048341;28;20127;-78
2024/01/16 02:11:07;;;;;;;6.32;1.45;;;3.30;99.90;;;;;;5051788;28;20485;-73
2024/01/16 02:13:33;;;;;;;5.32;1.45;;;4.30;99.90;;;;;;5070471;28;20056;-72
2024/01/16 02:15:58;;;;;;;6.85;1.38;;;3.30;99.90;;;;;;5065319;28;20459;-75
2024/01/16 02:18:24;;;;;;;7.78;1.75;;;3.30;99.90;;;;;;5067551;28;20119;-74
2024/01/16 02:20:50;;;;;;;5.35;1.17;;;3.50;99.90;;;;;;5064234;28;20090;-74
2024/01/16 02:23:26;;;;;;;7.28;1.63;;;3.30;99.90;;;;;;5030506;28;20045;-76
2024/01/16 02:25:52;;;;;;;8.02;1.80;;;4.10;99.90;;;;;;5069552;28;20367;-76
2024/01/16 02:28:17;;;;;;;4.72;1.50;;;3.90;99.90;;;;;;5093036;28;20051;-75
2024/01/16 02:30:43;;;;;;;5.88;1.60;;;4.10;99.90;;;;;;5050743;28;20056;-75
2024/01/16 02:33:08;;;;;;;6.57;1.60;;;3.90;99.90;;;;;;5029580;28;20045;-76
2024/01/16 02:35:34;;;;;;;7.72;1.73;;;3.30;99.90;;;;;;5061342;28;20404;-76
2024/01/16 02:38:00;;;;;;;5.93;1.55;;;3.30;99.90;;;;;;5062007;28;20037;-74
2024/01/16 02:40:26;;;;;;;5.03;1.60;;;3.50;99.90;;;;;;5036584;28;20178;-73
2024/01/16 02:42:52;;;;;;;6.95;1.77;;;4.80;99.90;;;;;;5050086;28;20048;-72
2024/01/16 02:45:18;;;;;;;6.55;1.50;;;3.40;99.90;;;;;;5061905;28;20086;-77
2024/01/16 02:47:43;;;;;;;5.35;1.35;;;3.70;99.90;;;;;;5066126;28;20492;-79
2024/01/16 02:50:09;;;;;;;5.95;1.75;;;3.40;99.90;;;;;;5050346;28;20044;-74
2024/01/16 02:52:35;;;;;;;6.60;1.95;;;4.30;99.90;;;;;;5055815;28;20048;-78
2024/01/16 02:55:01;;;;;;;9.00;1.60;;;4.30;99.90;;;;;;5062542;28;20044;-77
2024/01/16 02:57:27;;;;;;;8.77;1.50;;;4.20;99.90;;;;;;5056492;28;20064;-75
2024/01/16 02:59:52;;;;;;;7.57;2.25;;;3.30;99.90;;;;;;5033111;28;20056;-75
2024/01/16 03:02:18;;;;;;;6.93;1.60;;;4.20;99.90;;;;;;5044325;28;20472;-80
2024/01/16 03:04:44;;;;;;;9.77;1.98;;;3.70;99.90;;;;;;5033566;28;20075;-74
2024/01/16 03:07:09;;;;;;;7.63;1.52;;;3.20;99.90;;;;;;5029710;28;20069;-73
2024/01/16 03:09:36;;;;;;;7.72;1.15;;;3.50;99.90;;;;;;5043117;28;20485;-78
2024/01/16 03:12:02;;;;;;;7.88;1.40;;;3.20;99.90;;;;;;5022032;28;20039;-78
2024/01/16 03:14:28;;;;;;;6.13;1.38;;;3.40;99.90;;;;;;5065046;28;20040;-74
2024/01/16 03:16:53;;;;;;;4.53;1.30;;;3.90;99.90;;;;;;5062018;28;20047;-77
2024/01/16 03:19:19;;;;;;;10.30;1.67;;;3.10;99.90;;;;;;5036389;28;20041;-74
2024/01/16 03:21:45;;;;;;;6.18;1.48;;;4.50;99.90;;;;;;5030909;28;20397;-73
2024/01/16 03:24:10;;;;;;;10.88;1.80;;;3.00;99.90;;;;;;5060984;28;20064;-80
2024/01/16 03:26:38;;;;;;;8.38;1.63;;;3.80;99.90;;;;;;5049759;28;20043;-73
2024/01/16 03:29:04;;;;;;;6.90;1.60;;;3.00;99.90;;;;;;5046677;28;20036;-79
2024/01/16 03:31:30;;;;;;;7.22;1.30;;;3.00;99.90;;;;;;5059425;28;20084;-77
2024/01/16 03:33:55;;;;;;;6.82;1.40;;;3.90;99.90;;;;;;5066611;28;20087;-77
2024/01/16 03:36:21;;;;;;;4.90;1.27;;;4.00;99.90;;;;;;5055190;28;20041;-75
2024/01/16 03:38:47;;;;;;;6.95;1.70;;;3.40;99.90;;;;;;5040260;28;20036;-76
2024/01/16 03:41:12;;;;;;;11.00;1.85;;;3.50;99.90;;;;;;5064885;28;20060;-73
2024/01/16 03:43:40;;;;;;;7.13;1.58;;;3.60;99.90;;;;;;5059726;28;20061;-75
2024/01/16 03:46:06;;;;;;;6.57;1.40;;;3.80;99.90;;;;;;5046985;28;20037;-75
2024/01/16 03:48:32;;;;;;;11.48;1.70;;;3.30;99.90;;;;;;5074569;28;20556;-74
2024/01/16 03:50:57;;;;;;;6.95;1.67;;;3.70;99.90;;;;;;5042002;28;20093;-74
2024/01/16 03:53:23;;;;;;;7.75;1.60;;;3.80;99.90;;;;;;5064690;28;20511;-74
2024/01/16 03:55:49;;;;;;;6.10;1.85;;;2.90;99.90;;;;;;5066823;28;20032;-78
2024/01/16 03:58:16;;;;;;;7.93;1.52;;;2.90;99.90;;;;;;5050234;28;20059;-76
2024/01/16 04:00:43;;;;;;;9.05;1.90;;;3.10;99.90;;;;;;5066829;28;20130;-77
2024/01/16 04:03:08;;;;;;;10.45;1.88;;;3.90;99.90;;;;;;5061789;28;20045;-76
2024/01/16 04:05:34;;;;;;;6.47;1.30;;;3.20;99.90;;;;;;5044391;28;20123;-76
2024/01/16 04:08:00;;;;;;;6.07;1.60;;;3.50;99.90;;;;;;5065515;28;20052;-75
2024/01/16 04:10:26;;;;;;;10.45;1.60;;;3.20;99.90;;;;;;5059139;28;20075;-74
2024/01/16 04:12:52;;;;;;;7.57;1.75;;;3.20;99.90;;;;;;5066477;28;20500;-77
2024/01/16 04:15:18;;;;;;;6.82;1.55;;;3.20;99.90;;;;;;5062956;28;20045;-74
2024/01/16 04:17:43;;;;;;;14.93;1.52;;;3.90;99.90;;;;;;5028812;28;20040;-74
2024/01/16 04:20:10;;;;;;;9.63;2.50;;;4.10;99.90;;;;;;5066544;28;20421;-76
2024/01/16 04:22:36;;;;;;;6.15;1.65;;;3.20;99.90;;;;;;5031272;28;20443;-75
2024/01/16 04:25:04;;;;;;;6.28;1.52;;;4.10;99.90;;;;;;5070438;28;20045;-76
2024/01/16 04:27:31;;;;;;;7.38;1.50;;;3.20;99.90;;;;;;5066096;28;20384;-74
2024/01/16 04:29:57;;;;;;;11.55;1.63;;;4.10;99.90;;;;;;5053473;28;20097;-79
2024/01/16 04:32:22;;;;;;;8.43;2.03;;;4.20;99.90;;;;;;5043178;28;20120;-76
2024/01/16 04:34:48;;;;;;;8.00;1.88;;;4.00;99.90;;;;;;5063589;28;20051;-79
2024/01/16 04:37:14;;;;;;;7.07;2.00;;;4.00;99.90;;;;;;5063499;28;20158;-75
2024/01/16 04:39:39;;;;;;;7.60;1.60;;;4.40;99.90;;;;;;5033850;28;20093;-76
2024/01/16 04:42:05;;;;;;;6.75;1.40;;;3.40;99.90;;;;;;5088314;28;20040;-76
2024/01/16 04:44:31;;;;;;;6.38;1.80;;;3.80;99.90;;;;;;5049319;28;20093;-77
2024/01/16 04:46:56;;;;;;;8.27;1.77;;;4.00;99.90;;;;;;5049545;28;20040;-75
2024/01/16 04:49:22;;;;;;;7.20;1.63;;;3.00;99.90;;;;;;5043973;28;20040;-73
2024/01/16 04:51:48;;;;;;;7.20;1.90;;;4.20;99.90;;;;;;5050135;28;20039;-73
2024/01/16 04:54:13;;;;;;;5.35;1.75;;;3.20;99.90;;;;;;5047137;28;20051;-78
2024/01/16 04:56:39;;;;;;;6.03;1.63;;;4.00;99.90;;;;;;5025878;28;20099;-78
2024/01/16 04:59:05;;;;;;;7.07;1.92;;;4.40;99.90;;;;;;5050016;28;20048;-77
2024/01/16 05:01:31;;;;;;;9.20;2.15;;;3.30;99.90;;;;;;5054349;28;20051;-77
2024/01/16 05:03:56;;;;;;;12.65;2.00;;;3.50;99.90;;;;;;5050457;28;20151;-76
2024/01/16 05:06:22;;;;;;;7.47;1.92;;;4.50;99.90;;;;;;5069687;28;20117;-76
2024/01/16 05:08:48;;;;;;;10.80;2.58;;;4.20;99.90;;;;;;5064408;28;20051;-75
2024/01/16 05:11:14;;;;;;;11.23;1.90;;;4.40;99.90;;;;;;5060140;28;20474;-72
2024/01/16 05:13:39;;;;;;;6.68;1.60;;;4.20;99.90;;;;;;5044177;28;20040;-75
2024/01/16 05:16:06;;;;;;;8.35;1.52;;;4.70;53.20;;;;;;5067963;28;20376;-72
2024/01/16 05:18:33;;;;;;;7.88;1.70;;;4.40;18.40;;;;;;5067626;28;20047;-73
2024/01/16 05:20:59;;;;;;;7.22;1.50;;;5.40;20.10;;;;;;5032731;28;20072;-74
2024/01/16 05:23:24;;;;;;;9.25;2.00;;;4.60;1.00;;;;;;5045030;28;20620;-73
2024/01/16 05:25:50;;;;;;;12.07;2.65;;;5.40;2.40;;;;;;5045895;28;20447;-78
2024/01/16 05:28:16;;;;;;;8.73;2.42;;;4.10;17.40;;;;;;5067161;28;20035;-76
2024/01/16 05:30:42;;;;;;;11.65;2.08;;;4.90;26.80;;;;;;5069012;28;20077;-73
2024/01/16 05:33:08;;;;;;;7.20;1.80;;;3.40;17.40;;;;;;5060594;28;20046;-72
2024/01/16 05:35:34;;;;;;;10.68;2.38;;;4.40;36.20;;;;;;5049137;28;20084;-74
2024/01/16 05:38:00;;;;;;;9.52;1.60;;;4.80;25.50;;;;;;5065620;28;20079;-75
2024/01/16 05:40:25;;;;;;;7.63;1.40;;;4.20;33.00;;;;;;5063820;28;20424;-74
2024/01/16 05:42:51;;;;;;;14.50;2.45;;;4.20;29.00;;;;;;5046200;28;20449;-73
2024/01/16 05:45:17;;;;;;;9.95;1.63;;;3.30;1.00;;;;;;5050099;28;20441;-76
2024/01/16 05:47:43;;;;;;;12.85;1.55;;;3.20;26.80;;;;;;5031920;28;20079;-77
2024/01/16 05:50:09;;;;;;;4.55;1.35;;;4.80;36.30;;;;;;5054311;28;20064;-75
2024/01/16 05:52:35;;;;;;;8.65;2.47;;;3.40;40.20;;;;;;5064159;28;20036;-79
2024/01/16 05:55:02;;;;;;;7.43;2.20;;;3.40;46.20;;;;;;5063345;28;20384;-75
2024/01/16 05:57:31;;;;;;;7.38;1.63;;;3.20;48.90;;;;;;5065257;28;20053;-71
2024/01/16 05:59:57;;;;;;;12.45;2.38;;;3.30;59.70;;;;;;5057422;28;20052;-74
2024/01/16 06:02:24;;;;;;;5.88;1.70;;;3.10;71.80;;;;;;5048318;28;20049;-75
2024/01/16 06:04:50;;;;;;;9.73;1.80;;;3.20;84.20;;;;;;5043835;28;20060;-75
2024/01/16 06:07:15;;;;;;;12.45;2.33;;;4.80;95.10;;;;;;5064391;28;20095;-75
2024/01/16 06:09:41;;;;;;;5.35;1.67;;;3.30;98.90;;;;;;5066470;28;20050;-78
2024/01/16 06:12:07;;;;;;;7.07;1.33;;;3.20;99.90;;;;;;5067551;28;20040;-74
2024/01/16 06:14:33;;;;;;;8.68;1.83;;;3.30;99.90;;;;;;5062999;28;20547;-74
2024/01/16 06:17:00;;;;;;;5.72;1.42;;;3.60;99.90;;;;;;5044553;28;20036;-74
2024/01/16 06:19:26;;;;;;;13.02;2.08;;;3.50;99.90;;;;;;5048241;28;20124;-73
2024/01/16 06:21:52;;;;;;;14.30;2.55;;;4.90;99.90;;;;;;5050084;28;20124;-75
2024/01/16 06:24:17;;;;;;;8.45;1.80;;;3.30;99.90;;;;;;5059230;28;20040;-76
2024/01/16 06:26:43;;;;;;;6.22;2.08;;;4.60;99.90;;;;;;5073541;28;20055;-74
2024/01/16 06:29:09;;;;;;;10.95;2.58;;;4.60;99.90;;;;;;5060000;28;20072;-79
2024/01/16 06:31:35;;;;;;;7.05;1.52;;;5.20;99.90;;;;;;5042151;28;20401;-77
2024/01/16 06:34:00;;;;;;;8.35;1.63;;;3.30;99.90;;;;;;5066566;28;20143;-73
2024/01/16 06:36:26;;;;;;;10.05;1.67;;;3.40;99.90;;;;;;5020175;28;20039;-75
2024/01/16 06:38:52;;;;;;;14.40;2.08;;;4.70;99.90;;;;;;5058817;28;20040;-78
2024/01/16 06:41:18;;;;;;;10.07;2.00;;;4.60;99.90;;;;;;5066207;28;20070;-80
2024/01/16 06:43:44;;;;;;;13.68;1.95;;;4.80;99.90;;;;;;5066389;28;20109;-74
2024/01/16 06:46:10;;;;;;;8.23;2.40;;;3.60;99.90;;;;;;5043969;28;20535;-75
2024/01/16 06:48:37;;;;;;;11.65;2.08;;;5.40;99.90;;;;;;5047423;28;20401;-76
2024/01/16 06:51:03;;;;;;;8.55;2.78;;;3.60;99.90;;;;;;5033161;28;20130;-79
2024/01/16 06:53:28;;;;;;;8.38;2.75;;;3.60;99.90;;;;;;5063200;28;20595;-76
2024/01/16 06:55:54;;;;;;;9.57;2.85;;;4.30;99.90;;;;;;5044141;28;20037;-77
2024/01/16 06:58:20;;;;;;;9.07;2.60;;;3.60;99.90;;;;;;5044251;28;20047;-76
2024/01/16 07:00:47;;;;;;;12.27;3.03;;;3.50;99.90;;;;;;5030515;28;20416;-79
2024/01/16 07:03:13;;;;;;;14.48;2.72;;;3.60;99.90;;;;;;5047098;28;20072;-76
2024/01/16 07:05:43;;;;;;;13.68;2.90;;;4.60;99.90;;;;;;5069338;28;20043;-74
2024/01/16 07:08:09;;;;;;;9.65;2.60;;;4.50;99.90;;;;;;5045692;28;20111;-74
2024/01/16 07:10:35;;;;;;;10.25;2.33;;;3.40;99.90;;;;;;5051252;28;20037;-73
2024/01/16 07:13:01;;;;;;;11.13;2.55;;;3.40;99.90;;;;;;5063104;28;20059;-75
2024/01/16 07:15:28;;;;;;;10.60;2.35;;;4.00;99.90;;;;;;5051366;28;20048;-75
2024/01/16 07:17:53;;;;;;;10.63;2.47;;;4.00;99.90;;;;;;5038921;28;20131;-74
2024/01/16 07:20:19;;;;;;;7.70;2.28;;;4.60;99.90;;;;;;5069370;28;20127;-73
2024/01/16 07:22:45;;;;;;;8.32;2.47;;;3.40;99.90;;;;;;5051934;28;20076;-76
2024/01/16 07:25:11;;;;;;;9.80;2.30;;;4.30;99.90;;;;;;5068832;28;20040;-75
2024/01/16 07:27:37;;;;;;;9.02;2.38;;;3.40;99.90;;;;;;5064150;28;20044;-74
2024/01/16 07:30:07;;;;;;;9.60;2.90;;;3.40;99.90;;;;;;5060578;28;20987;-74
2024/01/16 07:32:33;;;;;;;5.03;1.70;;;4.40;99.90;;;;;;5050394;28;20427;-76
2024/01/16 07:34:59;;;;;;;8.95;2.70;;;4.40;99.90;;;;;;5078526;28;20353;-77
2024/01/16 07:37:25;;;;;;;6.82;1.90;;;4.40;99.90;;;;;;5053131;28;20162;-73
2024/01/16 07:39:50;;;;;;;4.53;1.80;;;3.80;99.90;;;;;;5067979;28;20472;-77
2024/01/16 07:42:16;;;;;;;6.07;2.03;;;4.50;99.90;;;;;;5036422;28;20040;-73
2024/01/16 07:44:42;;;;;;;7.43;1.98;;;4.10;99.90;;;;;;5068272;28;20124;-75
2024/01/16 07:47:07;;;;;;;8.57;2.05;;;4.50;99.90;;;;;;5067901;28;20564;-79
2024/01/16 07:49:34;;;;;;;7.07;1.70;;;3.90;99.90;;;;;;5037138;28;20032;-78
2024/01/16 07:51:59;;;;;;;7.43;1.73;;;3.40;99.90;;;;;;5069702;28;20093;-73
2024/01/16 07:54:25;;;;;;;5.97;2.08;;;5.30;99.90;;;;;;5053159;28;20427;-78
2024/01/16 07:56:52;;;;;;;11.45;2.47;;;3.30;99.90;;;;;;5035740;28;20044;-74
2024/01/16 07:59:17;;;;;;;6.63;1.63;;;3.30;99.90;;;;;;5051338;28;20091;-72
2024/01/16 08:01:43;;;;;;;6.30;1.70;;;3.40;99.90;;;;;;5051965;28;20036;-79
2024/01/16 08:04:10;;;;;;;8.82;4.68;;;4.40;99.90;;;;;;5037437;28;20564;-78
2024/01/16 08:06:36;;;;;;;13.10;4.05;;;4.50;99.90;;;;;;5063957;28;20029;-76
2024/01/16 08:09:02;;;;;;;12.30;4.18;;;3.40;99.90;;;;;;5035112;28;20394;-77
2024/01/16 08:11:27;;;;;;;7.18;2.95;;;4.60;99.90;;;;;;5068874;28;20040;-77
2024/01/16 08:13:53;;;;;;;12.45;3.17;;;4.00;99.90;;;;;;5070495;28;20051;-74
2024/01/16 08:16:19;;;;;;;9.73;2.80;;;4.70;99.90;;;;;;5048603;28;20045;-77
2024/01/16 08:18:44;;;;;;;11.57;4.03;;;4.50;99.90;;;;;;5059072;28;20490;-74
2024/01/16 08:21:11;;;;;;;15.32;5.05;;;4.80;99.90;;;;;;5070088;28;20048;-75
2024/01/16 08:23:37;;;;;;;9.70;3.58;;;3.60;99.90;;;;;;5050403;28;20544;-77
2024/01/16 08:26:02;;;;;;;10.65;3.33;;;3.80;99.90;;;;;;5086857;28;20044;-77
2024/01/16 08:28:28;;;;;;;10.13;3.47;;;4.20;99.90;;;;;;5054868;28;20068;-75
2024/01/16 08:30:54;;;;;;;8.85;3.22;;;3.70;99.90;;;;;;5051268;28;20041;-78
2024/01/16 08:33:19;;;;;;;7.22;2.22;;;3.80;99.90;;;;;;5035451;28;20128;-77
2024/01/16 08:35:45;;;;;;;7.95;2.30;;;5.10;99.90;;;;;;5070029;28;20473;-77
2024/01/16 08:38:11;;;;;;;5.97;1.92;;;4.40;99.90;;;;;;5062933;28;20405;-78
2024/01/16 08:40:36;;;;;;;6.35;1.83;;;4.80;99.90;;;;;;5064025;28;20384;-75
2024/01/16 08:43:03;;;;;;;7.78;2.17;;;5.10;99.90;;;;;;5049832;28;20059;-76
2024/01/16 08:45:29;;;;;;;6.45;1.60;;;5.10;99.90;;;;;;5068831;28;20492;-75
2024/01/16 08:47:55;;;;;;;11.85;2.30;;;4.80;99.90;;;;;;5069861;28;20043;-77
2024/01/16 08:50:20;;;;;;;9.23;1.77;;;3.90;99.90;;;;;;5070072;28;20041;-77
2024/01/16 08:52:46;;;;;;;9.10;2.22;;;5.40;99.90;;;;;;5053689;28;20127;-75
2024/01/16 08:55:12;;;;;;;6.28;1.60;;;4.00;99.90;;;;;;5053062;28;20072;-79
2024/01/16 08:57:38;;;;;;;7.03;1.90;;;3.90;99.90;;;;;;5036892;28;20047;-74
2024/01/16 09:00:08;;;;;;;4.85;1.60;;;5.30;99.90;;;;;;5052637;28;20047;-75
2024/01/16 09:02:35;;;;;;;8.82;1.98;;;5.70;99.90;;;;;;5069719;28;20091;-76
2024/01/16 09:05:01;;;;;;;7.47;1.95;;;4.30;99.90;;;;;;5036712;28;20041;-77
2024/01/16 09:07:27;;;;;;;8.35;1.75;;;4.30;99.90;;;;;;5068902;28;20053;-76
2024/01/16 09:09:53;;;;;;;14.10;2.47;;;5.90;99.90;;;;;;5052846;28;20072;-75
2024/01/16 09:12:19;;;;;;;8.27;1.88;;;5.10;99.90;;;;;;5052678;28;20389;-74
2024/01/16 09:14:45;;;;;;;8.90;2.08;;;4.70;99.90;;;;;;5069443;28;20059;-76
2024/01/16 09:17:11;;;;;;;7.85;2.08;;;5.70;99.90;;;;;;5032419;28;20037;-77
2024/01/16 09:19:37;;;;;;;5.55;1.65;;;4.40;99.90;;;;;;5039121;28;20541;-76
2024/01/16 09:22:03;;;;;;;9.60;2.55;;;6.10;99.90;;;;;;5069124;28;20048;-76
2024/01/16 09:24:29;;;;;;;7.43;1.65;;;5.30;99.90;;;;;;5069789;28;20375;-75
2024/01/16 09:26:55;;;;;;;3.95;1.80;;;4.50;99.90;;;;;;5036295;28;20044;-78
2024/01/16 09:29:24;;;;;;;7.93;2.15;;;4.40;99.90;;;;;;5051962;28;20089;-77
2024/01/16 09:31:50;;;;;;;7.13;1.65;;;4.40;99.90;;;;;;5052101;28;20040;-76
2024/01/16 09:34:17;;;;;;;5.60;1.75;;;4.30;99.90;;;;;;5052120;28;20040;-75
2024/01/16 09:36:43;;;;;;;6.03;1.90;;;6.20;99.90;;;;;;5069189;28;20091;-78
2024/01/16 09:39:10;;;;;;;6.07;1.73;;;6.20;99.90;;;;;;5069020;28;20079;-76
2024/01/16 09:41:36;;;;;;;6.90;1.45;;;6.10;99.90;;;;;;5032425;28;20081;-76
2024/01/16 09:44:03;;;;;;;7.60;2.35;;;6.40;99.90;;;;;;5065586;28;20087;-78
2024/01/16 09:46:31;;;;;;;6.45;1.70;;;4.50;99.90;;;;;;5065296;28;20041;-74
2024/01/16 09:48:59;;;;;;;5.95;1.85;;;6.10;99.90;;;;;;5049041;28;20033;-77
2024/01/16 09:51:25;;;;;;;6.10;2.25;;;6.10;99.90;;;;;;5058798;28;20064;-77
2024/01/16 09:53:51;;;;;;;9.20;1.80;;;4.40;99.90;;;;;;5052703;28;20106;-75
2024/01/16 09:56:20;;;;;;;5.68;1.58;;;6.30;99.90;;;;;;5051531;28;20036;-76
2024/01/16 09:58:48;;;;;;;6.28;1.70;;;6.40;99.90;;;;;;5052355;28;20044;-74
2024/01/16 10:01:16;;;;;;;5.18;1.88;;;5.00;99.90;;;;;;5068269;28;20071;-76
2024/01/16 10:03:45;;;;;;;6.35;1.63;;;6.70;99.90;;;;;;5070115;28;20132;-77
2024/01/16 10:06:11;;;;;;;4.35;1.80;;;4.30;99.90;;;;;;5070122;28;20071;-76
2024/01/16 10:08:37;;;;;;;6.43;1.85;;;4.50;99.90;;;;;;5052749;28;20060;-79
2024/01/16 10:11:03;;;;;;;6.25;1.98;;;5.10;99.90;;;;;;5052207;28;20599;-76
2024/01/16 10:13:29;;;;;;;5.57;2.03;;;5.40;99.90;;;;;;5068217;28;20044;-77
2024/01/16 10:15:55;;;;;;;5.50;2.10;;;6.30;99.90;;;;;;5068998;28;20059;-77
2024/01/16 10:18:35;;;;;;;8.18;2.00;;;4.30;99.90;;;;;;5068849;28;20097;-77
2024/01/16 10:21:00;;;;;;;8.65;2.25;;;6.50;99.90;;;;;;5054188;28;20048;-77
2024/01/16 10:23:27;;;;;;;5.05;1.90;;;7.00;96.20;;;;;;5068540;28;20113;-76
2024/01/16 10:26:12;;;;;;;6.18;1.83;;;6.70;93.80;;;;;;5052559;28;20044;-80
2024/01/16 10:28:39;;;;;;;6.60;1.75;;;6.70;99.90;;;;;;5068819;28;20036;-80
2024/01/16 10:31:09;;;;;;;6.50;2.10;;;4.80;99.90;;;;;;5068336;28;20129;-74
2024/01/16 10:33:37;;;;;;;5.53;1.70;;;6.90;99.90;;;;;;5068264;28;20688;-80
2024/01/16 10:36:12;;;;;;;5.18;1.58;;;4.50;99.90;;;;;;5019560;28;20058;-77
2024/01/16 10:38:40;;;;;;;4.35;1.50;;;4.60;99.90;;;;;;5068399;28;20071;-78
2024/01/16 10:41:17;;;;;;;6.20;1.63;;;4.70;99.90;;;;;;5068633;28;20052;-77
2024/01/16 10:43:46;;;;;;;4.75;2.30;;;6.80;99.90;;;;;;5068132;28;20063;-78
2024/01/16 10:46:14;;;;;;;6.38;1.60;;;5.70;99.90;;;;;;5068060;28;20044;-77
2024/01/16 10:48:43;;;;;;;5.00;2.25;;;6.80;99.90;;;;;;5068717;28;20036;-76
2024/01/16 10:51:14;;;;;;;7.38;2.28;;;4.20;99.90;;;;;;5067041;28;20032;-79
2024/01/16 10:53:44;;;;;;;5.35;2.22;;;4.00;99.90;;;;;;5051428;28;20485;-76
2024/01/16 10:56:12;;;;;;;5.05;2.55;;;6.60;99.90;;;;;;5071310;28;20032;-77
2024/01/16 10:58:42;;;;;;;8.60;2.53;;;4.00;99.90;;;;;;5072185;28;20052;-77
2024/01/16 11:01:17;;;;;;;4.95;2.17;;;4.10;99.90;;;;;;5072003;28;20049;-77
2024/01/16 11:03:50;;;;;;;4.97;2.22;;;6.70;99.90;;;;;;5055361;28;20083;-78
2024/01/16 11:06:17;;;;;;;5.10;2.55;;;7.10;99.90;;;;;;5054843;28;20093;-79
2024/01/16 11:08:47;;;;;;;8.23;3.10;;;7.50;99.90;;;;;;5071798;28;20056;-78
2024/01/16 11:11:13;;;;;;;6.78;3.75;;;6.90;99.90;;;;;;5054531;28;20141;-78
2024/01/16 11:13:41;;;;;;;7.97;4.38;;;6.90;99.90;;;;;;5072114;28;20040;-78
2024/01/16 11:16:08;;;;;;;10.05;5.03;;;6.90;99.90;;;;;;5071955;28;20178;-77
2024/01/16 11:18:34;;;;;;;9.15;4.80;;;7.20;99.90;;;;;;5054824;28;20040;-75
2024/01/16 11:21:02;;;;;;;8.52;4.88;;;7.40;99.90;;;;;;5054959;28;20040;-76
2024/01/16 11:23:28;;;;;;;11.75;5.03;;;6.90;99.90;;;;;;5054645;28;20404;-76
2024/01/16 11:25:54;;;;;;;7.63;4.72;;;6.90;99.90;;;;;;5038436;28;20041;-76
2024/01/16 11:28:19;;;;;;;11.32;5.40;;;4.60;99.90;;;;;;5071487;28;20094;-77
2024/01/16 11:30:45;;;;;;;8.88;4.95;;;6.90;99.90;;;;;;5071662;28;20044;-79
2024/01/16 11:33:33;;;;;;;8.07;4.60;;;4.90;99.90;;;;;;5054317;28;20045;-80
2024/01/16 11:36:00;;;;;;;8.52;4.05;;;4.60;99.90;;;;;;5071620;28;20070;-78
2024/01/16 11:38:26;;;;;;;4.88;3.40;;;5.30;99.90;;;;;;5071005;28;20045;-77
2024/01/16 11:40:54;;;;;;;6.97;4.30;;;6.30;99.90;;;;;;5070981;28;20057;-76
2024/01/16 11:43:38;;;;;;;5.28;3.25;;;6.40;99.90;;;;;;5054082;28;20048;-77
2024/01/16 11:46:08;;;;;;;5.47;2.90;;;6.20;78.40;;;;;;5054663;28;20079;-79
2024/01/16 11:48:35;;;;;;;5.68;2.70;;;7.40;99.90;;;;;;5054303;28;20041;-77
2024/01/16 11:51:25;;;;;;;5.32;2.47;;;4.60;1.00;;;;;;5071292;28;20481;-77
2024/01/16 11:53:56;;;;;;;3.58;2.15;;;7.30;40.50;;;;;;5071178;28;20044;-80
2024/01/16 11:56:41;;;;;;;3.38;2.03;;;4.70;56.40;;;;;;5054087;28;20075;-77
2024/01/16 11:59:27;;;;;;;4.22;1.73;;;7.60;1.00;;;;;;5067290;28;20045;-78
2024/01/16 12:01:57;;;;;;;7.78;2.15;;;7.40;1.00;;;;;;5050516;28;20048;-78
2024/01/16 12:04:23;;;;;;;4.00;2.05;;;7.40;38.20;;;;;;5040293;28;20052;-78
2024/01/16 12:06:58;;;;;;;4.57;2.03;;;7.20;1.00;;;;;;5070297;28;20063;-78
2024/01/16 12:09:26;;;;;;;4.82;2.33;;;5.00;13.90;;;;;;5053276;28;20059;-77
2024/01/16 12:11:58;;;;;;;3.15;1.98;;;6.40;1.00;;;;;;5086810;28;20049;-80
2024/01/16 12:14:24;;;;;;;3.83;1.85;;;5.00;1.00;;;;;;5037016;28;20098;-80
2024/01/16 12:16:49;;;;;;;3.75;1.90;;;5.30;1.80;;;;;;5054084;28;20032;-79
2024/01/16 12:19:15;;;;;;;5.18;2.20;;;4.50;70.80;;;;;;5020555;28;20089;-79
2024/01/16 12:21:44;;;;;;;4.13;2.15;;;4.60;1.00;;;;;;5037176;28;20045;-78
2024/01/16 12:24:13;;;;;;;4.85;2.00;;;6.50;1.00;;;;;;5070441;28;20050;-78
2024/01/16 12:26:41;;;;;;;5.80;1.88;;;7.30;50.80;;;;;;5061228;28;20063;-80
2024/01/16 12:29:07;;;;;;;4.38;2.20;;;7.10;65.30;;;;;;5070146;28;20089;-80
2024/01/16 12:31:32;;;;;;;7.20;2.25;;;6.60;57.40;;;;;;5053131;28;20045;-78
2024/01/16 12:34:08;;;;;;;4.70;2.10;;;7.00;99.70;;;;;;5054112;28;20052;-81
2024/01/16 12:36:34;;;;;;;4.68;1.98;;;6.90;98.50;;;;;;5053163;28;20097;-79
2024/01/16 12:39:01;;;;;;;5.00;2.42;;;6.80;99.90;;;;;;5053545;28;20075;-79
2024/01/16 12:41:36;;;;;;;7.45;2.55;;;6.80;99.90;;;;;;5052971;28;20056;-78
2024/01/16 12:44:03;;;;;;;8.05;2.53;;;5.80;99.90;;;;;;5053258;28;20050;-79
2024/01/16 12:46:30;;;;;;;11.80;3.00;;;5.50;99.90;;;;;;5036767;28;20041;-78
2024/01/16 12:49:03;;;;;;;8.18;2.58;;;4.50;99.90;;;;;;5036854;28;20085;-77
2024/01/16 12:51:29;;;;;;;6.07;2.42;;;6.50;99.90;;;;;;5069598;28;20044;-79
2024/01/16 12:54:13;;;;;;;5.93;2.60;;;7.00;99.90;;;;;;5069951;28;20047;-78